Custer, Washington
Current Conditions -  °F | °C
As of 10:10 PM on Tuesday 27 Jan 2015 (Local Time) from KBLI Reporting Station
Broken Clouds Broken Clouds  
Wind Chill: 46°   Ceiling: 2900
Heat Index: 46°   Visibility: 10mi
Dew Point: 41°   Wind: 0mph
Humidity: 81%   Direction: NA
Pressure: 30.23"   Gusts: NA
Location:  48.92°N, 122.64°W
Report Text: KBLI 280610Z AUTO 00000KT 10SM FEW018 BKN029 08/05 A3023 RMK AO2
Loading
Personal Weather Stations






























Interactive Weather Map New forecast layout! Learn more

10-Day Weather Forecast

Advertisements
Track Severe Weather on mobile